createdAt,value
2018-11-21T00:00:31.501Z,14.30
2018-11-21T00:03:00.364Z,15.00
2018-11-21T00:05:28.997Z,13.47
2018-11-21T00:07:58.214Z,16.37
2018-11-21T00:10:27.011Z,12.77
2018-11-21T00:12:56.929Z,14.70
2018-11-21T00:15:26.081Z,13.30
2018-11-21T00:17:55.200Z,15.50
2018-11-21T00:20:23.967Z,15.30
2018-11-21T00:22:52.986Z,14.37
2018-11-21T00:25:22.043Z,15.43
2018-11-21T00:27:50.873Z,14.00
2018-11-21T00:30:19.879Z,14.23
2018-11-21T00:32:48.649Z,14.20
2018-11-21T00:35:17.431Z,14.23
2018-11-21T00:37:46.458Z,15.20
2018-11-21T00:40:15.653Z,14.90
2018-11-21T00:42:46.953Z,13.80
2018-11-21T00:45:13.558Z,15.07
2018-11-21T00:47:42.395Z,14.80
2018-11-21T00:50:11.749Z,14.20
2018-11-21T00:52:40.609Z,14.53
2018-11-21T00:55:09.329Z,15.13
2018-11-21T00:57:38.313Z,14.20
2018-11-21T01:00:09.358Z,14.50
2018-11-21T01:02:38.152Z,14.40
2018-11-21T01:05:07.580Z,14.63
2018-11-21T01:07:36.681Z,15.30
2018-11-21T01:10:05.697Z,15.63
2018-11-21T01:12:34.694Z,14.70
2018-11-21T01:15:03.763Z,14.70
2018-11-21T01:17:32.483Z,15.50
2018-11-21T01:20:01.358Z,15.20
2018-11-21T01:22:30.153Z,13.57
2018-11-21T01:25:00.226Z,15.47
2018-11-21T01:27:29.088Z,15.37
2018-11-21T01:29:57.995Z,14.70
2018-11-21T01:32:26.865Z,17.63
2018-11-21T01:34:55.608Z,14.47
2018-11-21T01:37:24.863Z,15.43
2018-11-21T01:39:53.659Z,15.97
2018-11-21T01:42:23.238Z,16.10
2018-11-21T01:44:52.051Z,17.20
2018-11-21T01:47:20.833Z,16.70
2018-11-21T01:49:50.203Z,17.07
2018-11-21T01:52:19.155Z,17.70
2018-11-21T01:54:47.910Z,16.13
2018-11-21T01:57:17.309Z,16.17
2018-11-21T01:59:46.968Z,15.30
2018-11-21T02:02:15.895Z,16.80
2018-11-21T02:04:44.690Z,16.73
2018-11-21T02:07:13.421Z,17.80
2018-11-21T02:09:42.240Z,17.20
2018-11-21T02:12:11.071Z,16.03
2018-11-21T02:14:40.651Z,17.10
2018-11-21T02:17:09.411Z,15.50
2018-11-21T02:19:39.397Z,16.50
2018-11-21T02:22:08.296Z,15.93
2018-11-21T02:24:37.358Z,16.83
2018-11-21T02:27:06.343Z,16.47
2018-11-21T02:29:35.261Z,16.10
2018-11-21T02:32:05.733Z,16.13
2018-11-21T02:34:34.818Z,15.90
2018-11-21T02:37:03.943Z,18.00
2018-11-21T02:39:32.635Z,17.00
2018-11-21T02:42:02.037Z,16.50
2018-11-21T02:44:31.172Z,18.47
2018-11-21T02:47:00.114Z,16.10
2018-11-21T02:49:30.374Z,16.40
2018-11-21T02:51:59.501Z,17.00
2018-11-21T02:54:28.248Z,18.83
2018-11-21T02:57:19.023Z,15.50
2018-11-21T02:59:48.666Z,16.87
2018-11-21T03:02:17.637Z,17.23
2018-11-21T03:04:46.517Z,18.07
2018-11-21T03:07:15.509Z,16.30
2018-11-21T03:09:44.297Z,18.20
2018-11-21T03:12:13.436Z,16.67
2018-11-21T03:14:43.194Z,16.83
2018-11-21T03:17:12.427Z,17.50
2018-11-21T03:19:42.122Z,16.50
2018-11-21T03:22:11.553Z,18.93
2018-11-21T03:24:40.334Z,17.53
2018-11-21T03:27:09.324Z,17.90
2018-11-21T03:29:37.757Z,17.60
2018-11-21T03:32:06.239Z,18.63
2018-11-21T03:34:35.953Z,17.97
2018-11-21T03:37:04.967Z,18.53
2018-11-21T03:39:33.788Z,18.47
2018-11-21T03:42:02.699Z,19.33
2018-11-21T03:44:31.571Z,18.00
2018-11-21T03:47:00.489Z,17.93
2018-11-21T03:49:29.435Z,18.80
2018-11-21T03:51:58.368Z,18.10
2018-11-21T03:54:27.145Z,19.47
2018-11-21T03:56:55.888Z,17.77
2018-11-21T03:59:25.283Z,19.63
2018-11-21T04:01:54.165Z,18.90
2018-11-21T04:04:24.175Z,17.23
2018-11-21T04:06:53.013Z,17.87
2018-11-21T04:09:22.083Z,18.27
2018-11-21T04:11:51.780Z,20.63
2018-11-21T04:14:20.175Z,19.00
2018-11-21T04:16:48.489Z,18.40
2018-11-21T04:19:17.045Z,19.17
2018-11-21T04:21:45.717Z,19.10
2018-11-21T04:24:14.652Z,19.17
2018-11-21T04:26:43.537Z,18.40
2018-11-21T04:29:12.765Z,18.77
2018-11-21T04:31:41.455Z,20.00
2018-11-21T04:34:11.794Z,20.30
2018-11-21T04:36:40.567Z,19.40
2018-11-21T04:39:10.544Z,19.10
2018-11-21T04:41:39.438Z,19.40
2018-11-21T04:44:08.121Z,17.80
2018-11-21T04:46:37.225Z,19.13
2018-11-21T04:49:06.212Z,19.40
2018-11-21T04:51:34.949Z,21.70
2018-11-21T04:54:04.745Z,19.50
2018-11-21T04:56:33.364Z,20.73
2018-11-21T04:59:02.117Z,19.90
2018-11-21T05:01:31.058Z,20.50
2018-11-21T05:04:00.135Z,19.93
2018-11-21T05:06:29.889Z,21.30
2018-11-21T05:08:58.623Z,18.70
2018-11-21T05:11:27.622Z,19.60
2018-11-21T05:13:57.066Z,20.10
2018-11-21T05:16:27.034Z,20.77
2018-11-21T05:18:56.308Z,18.90
2018-11-21T05:21:25.706Z,21.77
2018-11-21T05:23:54.498Z,21.60
2018-11-21T05:26:23.448Z,22.77
2018-11-21T05:28:52.301Z,22.67
2018-11-21T05:31:21.302Z,21.80
2018-11-21T05:33:50.195Z,23.20
2018-11-21T05:36:19.319Z,21.17
2018-11-21T05:38:48.452Z,21.20
2018-11-21T05:41:17.641Z,23.63
2018-11-21T05:43:46.445Z,22.20
2018-11-21T05:46:15.331Z,21.47
2018-11-21T05:48:44.203Z,22.87
2018-11-21T05:51:13.017Z,20.83
2018-11-21T05:53:41.896Z,21.37
2018-11-21T05:56:11.091Z,22.50
2018-11-21T05:58:40.204Z,21.07
2018-11-21T06:01:08.987Z,21.13
2018-11-21T06:03:37.754Z,21.50
2018-11-21T06:06:09.950Z,21.00
2018-11-21T06:08:35.665Z,21.83
2018-11-21T06:11:04.622Z,21.73
2018-11-21T06:13:33.397Z,21.37
2018-11-21T06:16:02.413Z,21.90
2018-11-21T06:18:31.391Z,21.80
2018-11-21T06:21:01.358Z,23.47
2018-11-21T06:23:30.079Z,22.83
2018-11-21T06:25:59.173Z,22.30
2018-11-21T06:28:28.488Z,22.57
2018-11-21T06:30:58.664Z,24.07
2018-11-21T06:33:28.160Z,23.97
2018-11-21T06:35:57.274Z,23.17
2018-11-21T06:38:26.551Z,22.27
2018-11-21T06:40:55.496Z,24.97
2018-11-21T06:43:24.607Z,23.33
2018-11-21T06:45:53.835Z,23.13
2018-11-21T06:48:22.566Z,25.67
2018-11-21T06:50:51.228Z,24.77
2018-11-21T06:53:20.094Z,24.60
2018-11-21T06:55:49.010Z,26.20
2018-11-21T06:58:18.648Z,24.47
2018-11-21T07:00:47.415Z,25.20
2018-11-21T07:03:16.224Z,26.70
2018-11-21T07:05:45.451Z,26.67
2018-11-21T07:08:14.513Z,24.43
2018-11-21T07:10:43.407Z,25.80
2018-11-21T07:13:12.529Z,22.37
2018-11-21T07:15:41.349Z,25.17
2018-11-21T07:18:10.252Z,23.50
2018-11-21T07:20:39.462Z,23.07
2018-11-21T07:23:08.301Z,23.60
2018-11-21T07:25:37.138Z,23.20
2018-11-21T07:28:05.881Z,23.87
2018-11-21T07:30:34.993Z,24.03
2018-11-21T07:33:04.673Z,23.33
2018-11-21T07:35:33.906Z,23.03
2018-11-21T07:38:02.992Z,22.27
2018-11-21T07:40:33.575Z,24.70
2018-11-21T07:43:03.799Z,22.50
2018-11-21T07:45:33.643Z,22.87
2018-11-21T07:48:02.350Z,21.37
2018-11-21T07:50:31.169Z,22.10
2018-11-21T07:53:00.420Z,21.50
2018-11-21T07:55:30.326Z,19.77
2018-11-21T07:58:01.311Z,22.30
2018-11-21T08:01:21.585Z,22.73
2018-11-21T08:03:55.169Z,21.37
2018-11-21T08:06:42.993Z,21.87
2018-11-21T08:09:42.988Z,20.40
2018-11-21T08:12:31.381Z,17.60
2018-11-21T08:15:22.362Z,18.40
2018-11-21T08:18:20.319Z,19.80
2018-11-21T08:21:17.720Z,17.30
2018-11-21T08:24:04.570Z,18.73
2018-11-21T08:27:01.359Z,17.27
2018-11-21T08:29:30.420Z,19.77
2018-11-21T08:31:59.315Z,19.00
2018-11-21T08:34:28.056Z,18.07
2018-11-21T08:36:57.229Z,18.40
2018-11-21T08:39:25.951Z,18.37
2018-11-21T08:41:56.373Z,19.33
2018-11-21T08:44:25.139Z,18.07
2018-11-21T08:46:53.865Z,18.70
2018-11-21T08:49:22.561Z,18.80
2018-11-21T08:51:51.357Z,20.60
2018-11-21T08:54:20.032Z,21.07
2018-11-21T08:56:48.687Z,20.63
2018-11-21T08:59:17.243Z,22.37
2018-11-21T09:01:47.075Z,22.00
2018-11-21T09:04:17.348Z,23.10
2018-11-21T09:06:46.019Z,23.60
2018-11-21T09:09:18.180Z,23.83
2018-11-21T09:11:48.147Z,21.83
2018-11-21T09:14:16.821Z,21.60
2018-11-21T09:16:45.463Z,21.50
2018-11-21T09:19:17.084Z,20.83
2018-11-21T09:21:46.202Z,18.50
2018-11-21T09:24:14.867Z,18.50
2018-11-21T09:26:43.669Z,19.07
2018-11-21T09:29:13.445Z,19.73
2018-11-21T09:31:43.618Z,18.90
2018-11-21T09:34:13.543Z,19.50
2018-11-21T09:36:42.609Z,18.57
2018-11-21T09:39:12.734Z,19.03
2018-11-21T09:41:41.922Z,20.57
2018-11-21T09:44:11.424Z,20.70
2018-11-21T09:46:40.423Z,18.63
2018-11-21T09:49:10.074Z,20.10
2018-11-21T09:51:41.291Z,20.63
2018-11-21T09:54:09.955Z,20.40
2018-11-21T09:56:38.630Z,20.73
2018-11-21T09:59:07.300Z,20.87
2018-11-21T10:02:15.249Z,20.83
2018-11-21T10:04:43.912Z,19.30
2018-11-21T10:07:13.731Z,20.90
2018-11-21T10:09:44.435Z,19.67
2018-11-21T10:12:13.132Z,19.97
2018-11-21T10:14:41.761Z,18.50
2018-11-21T10:17:10.479Z,20.53
2018-11-21T10:19:40.285Z,19.47
2018-11-21T10:22:09.371Z,20.40
2018-11-21T10:24:39.557Z,19.03
2018-11-21T10:27:09.303Z,18.30
2018-11-21T10:29:41.709Z,17.43
2018-11-21T10:32:10.946Z,16.83
2018-11-21T10:34:41.140Z,18.13
2018-11-21T10:37:11.405Z,18.10
2018-11-21T10:39:40.110Z,19.30
2018-11-21T10:42:10.728Z,19.10
2018-11-21T10:44:39.860Z,17.90
2018-11-21T10:47:08.546Z,17.47
2018-11-21T10:49:38.938Z,17.10
2018-11-21T10:52:08.486Z,17.60
2018-11-21T10:54:37.246Z,18.20
2018-11-21T10:57:05.909Z,15.60
2018-11-21T10:59:34.649Z,18.47
2018-11-21T11:02:22.887Z,17.63
2018-11-21T11:04:59.143Z,16.87
2018-11-21T11:07:50.053Z,17.83
2018-11-21T11:10:36.117Z,16.33
2018-11-21T11:13:22.537Z,16.43
2018-11-21T11:16:09.474Z,16.17
2018-11-21T11:19:03.143Z,16.37
2018-11-21T11:21:53.621Z,16.90
2018-11-21T11:24:56.905Z,18.50
2018-11-21T11:27:55.058Z,16.23
2018-11-21T11:30:42.840Z,17.70
2018-11-21T11:33:31.081Z,17.77
2018-11-21T11:36:17.510Z,18.27
2018-11-21T11:39:03.853Z,16.53
2018-11-21T11:41:57.831Z,16.50
2018-11-21T11:44:45.927Z,17.47
2018-11-21T11:47:50.458Z,17.57
2018-11-21T11:50:29.683Z,17.80
2018-11-21T11:53:19.868Z,17.30
2018-11-21T11:56:16.751Z,17.50
2018-11-21T11:59:04.911Z,19.60
2018-11-21T12:02:06.496Z,21.13
2018-11-21T12:04:50.609Z,18.77
2018-11-21T12:07:57.484Z,18.77
2018-11-21T12:10:42.160Z,20.30
2018-11-21T12:13:42.922Z,18.07
2018-11-21T12:16:33.712Z,19.73
2018-11-21T12:19:30.613Z,21.83
2018-11-21T12:22:16.694Z,20.90
2018-11-21T12:25:11.137Z,17.73
2018-11-21T12:28:07.736Z,18.80
2018-11-21T12:31:14.617Z,20.03
2018-11-21T12:34:03.146Z,19.60
2018-11-21T12:36:51.045Z,19.80
2018-11-21T12:39:54.657Z,19.20
2018-11-21T12:42:41.500Z,17.00
2018-11-21T12:45:31.881Z,18.00
2018-11-21T12:48:35.102Z,17.97
2018-11-21T12:51:21.473Z,17.47
2018-11-21T12:54:15.436Z,19.37
2018-11-21T12:57:06.566Z,17.10
2018-11-21T12:59:56.918Z,16.60
2018-11-21T13:02:59.513Z,16.90
2018-11-21T13:05:46.776Z,18.13
2018-11-21T13:08:28.749Z,17.70
2018-11-21T13:11:20.453Z,19.83
2018-11-21T13:14:25.479Z,17.40
2018-11-21T13:17:08.342Z,16.30
2018-11-21T13:20:04.934Z,17.57
2018-11-21T13:22:45.675Z,16.20
2018-11-21T13:25:29.786Z,16.27
2018-11-21T13:28:16.627Z,17.30
2018-11-21T13:31:22.422Z,16.87
2018-11-21T13:34:08.865Z,17.70
2018-11-21T13:37:02.204Z,17.20
2018-11-21T13:40:00.652Z,18.80
2018-11-21T13:42:51.012Z,17.80
2018-11-21T13:45:37.099Z,18.87
2018-11-21T13:48:34.010Z,17.30
2018-11-21T13:51:30.614Z,17.80
2018-11-21T13:54:19.598Z,18.33
2018-11-21T13:56:49.526Z,17.37
2018-11-21T13:59:18.224Z,18.43
2018-11-21T14:01:47.407Z,17.87
2018-11-21T14:04:16.457Z,18.80
2018-11-21T14:06:45.197Z,16.60
2018-11-21T14:09:19.376Z,17.60
2018-11-21T14:11:49.110Z,17.70
2018-11-21T14:14:17.878Z,19.37
2018-11-21T14:16:48.347Z,17.90
2018-11-21T14:19:20.154Z,19.33
2018-11-21T14:21:55.846Z,17.77
2018-11-21T14:24:21.547Z,18.97
2018-11-21T14:26:50.527Z,19.37
2018-11-21T14:29:19.199Z,18.70
2018-11-21T14:31:48.003Z,18.40
2018-11-21T14:34:16.674Z,18.57
2018-11-21T14:36:46.179Z,18.40
2018-11-21T14:39:15.361Z,17.37
2018-11-21T14:41:46.859Z,19.17
2018-11-21T14:44:15.927Z,17.57
2018-11-21T14:46:46.635Z,17.40
2018-11-21T14:49:15.479Z,17.70
2018-11-21T14:52:03.716Z,18.50
2018-11-21T14:54:32.548Z,17.70
2018-11-21T14:57:01.518Z,18.37
2018-11-21T14:59:30.317Z,17.47
2018-11-21T15:01:59.182Z,17.23
2018-11-21T15:04:28.289Z,17.83
2018-11-21T15:06:57.148Z,16.90
2018-11-21T15:09:26.091Z,16.93
2018-11-21T15:11:55.032Z,17.07
2018-11-21T15:14:24.725Z,19.43
2018-11-21T15:16:53.513Z,18.47
2018-11-21T15:19:22.360Z,18.30
2018-11-21T15:21:51.416Z,18.07
2018-11-21T15:24:20.367Z,19.50
2018-11-21T15:26:49.686Z,18.50
2018-11-21T15:29:18.726Z,20.30
2018-11-21T15:31:47.720Z,18.87
2018-11-21T15:34:16.548Z,19.00
2018-11-21T15:36:45.370Z,20.43
2018-11-21T15:39:14.581Z,20.47
2018-11-21T15:41:43.425Z,18.00
2018-11-21T15:44:12.140Z,19.07
2018-11-21T15:46:45.689Z,20.07
2018-11-21T15:49:12.062Z,19.83
2018-11-21T15:51:41.222Z,19.70
2018-11-21T15:54:10.431Z,18.97
2018-11-21T15:56:39.320Z,20.20
2018-11-21T15:59:08.436Z,18.77
2018-11-21T16:01:37.817Z,20.10
2018-11-21T16:04:07.050Z,19.27
2018-11-21T16:06:35.954Z,19.47
2018-11-21T16:09:07.549Z,19.10
2018-11-21T16:11:36.319Z,19.87
2018-11-21T16:14:05.540Z,22.50
2018-11-21T16:16:34.372Z,18.37
2018-11-21T16:19:03.106Z,20.90
2018-11-21T16:21:32.224Z,20.97
2018-11-21T16:24:02.241Z,20.00
2018-11-21T16:26:32.245Z,20.33
2018-11-21T16:29:01.145Z,19.50
2018-11-21T16:31:30.343Z,21.60
2018-11-21T16:33:59.782Z,20.57
2018-11-21T16:36:28.506Z,20.30
2018-11-21T16:38:57.531Z,20.40
2018-11-21T16:41:26.267Z,20.30
2018-11-21T16:43:56.018Z,21.60
2018-11-21T16:46:24.915Z,21.83
2018-11-21T16:48:53.871Z,21.63
2018-11-21T16:51:22.725Z,21.40
2018-11-21T16:53:51.338Z,21.53
2018-11-21T16:56:20.117Z,22.57
2018-11-21T16:58:48.810Z,20.70
2018-11-21T17:01:17.988Z,21.10
2018-11-21T17:03:46.716Z,19.73
2018-11-21T17:06:15.831Z,22.60
2018-11-21T17:08:44.570Z,21.10
2018-11-21T17:11:13.617Z,20.80
2018-11-21T17:13:42.318Z,20.60
2018-11-21T17:16:11.104Z,22.50
2018-11-21T17:18:40.271Z,21.30
2018-11-21T17:21:08.959Z,20.37
2018-11-21T17:23:38.844Z,21.00
2018-11-21T17:26:07.676Z,20.27
2018-11-21T17:28:36.630Z,22.23
2018-11-21T17:31:05.286Z,22.20
2018-11-21T17:33:34.093Z,23.20
2018-11-21T17:36:02.793Z,20.53
2018-11-21T17:38:33.704Z,20.40
2018-11-21T17:41:00.165Z,20.20
2018-11-21T17:43:29.097Z,19.87
2018-11-21T17:46:03.993Z,22.33
2018-11-21T17:48:26.851Z,21.70
2018-11-21T17:50:55.608Z,21.87
2018-11-21T17:53:24.625Z,22.33
2018-11-21T17:55:53.350Z,19.77
2018-11-21T17:58:22.291Z,22.03
2018-11-21T18:00:51.086Z,22.00
2018-11-21T18:03:19.761Z,21.23
2018-11-21T18:05:48.660Z,22.47
2018-11-21T18:08:18.211Z,22.43
2018-11-21T18:10:46.922Z,21.53
2018-11-21T18:13:16.321Z,23.57
2018-11-21T18:15:45.132Z,22.70
2018-11-21T18:18:13.988Z,21.30
2018-11-21T18:20:42.676Z,21.53
2018-11-21T18:23:12.220Z,21.47
2018-11-21T18:25:53.635Z,21.23
2018-11-21T18:28:12.183Z,20.53
2018-11-21T18:30:41.411Z,21.20
2018-11-21T18:33:10.250Z,20.03
2018-11-21T18:35:38.969Z,20.43
2018-11-21T18:38:07.691Z,21.10
2018-11-21T18:40:36.813Z,20.73
2018-11-21T18:43:05.861Z,19.97
2018-11-21T18:45:36.704Z,21.50
2018-11-21T18:48:05.951Z,22.17
2018-11-21T18:50:34.843Z,21.57
2018-11-21T18:53:04.948Z,21.30
2018-11-21T18:55:38.973Z,20.90
2018-11-21T18:58:41.611Z,20.63
2018-11-21T19:01:10.626Z,20.53
2018-11-21T19:03:39.980Z,21.40
2018-11-21T19:06:08.837Z,20.80
2018-11-21T19:08:37.691Z,21.90
2018-11-21T19:11:06.986Z,21.43
2018-11-21T19:13:35.922Z,19.37
2018-11-21T19:16:04.638Z,21.00
2018-11-21T19:18:33.853Z,19.97
2018-11-21T19:21:02.867Z,21.17
2018-11-21T19:23:31.701Z,20.27
2018-11-21T19:26:00.339Z,20.20
2018-11-21T19:28:29.753Z,19.37
2018-11-21T19:30:59.009Z,17.90
2018-11-21T19:33:28.022Z,17.60
2018-11-21T19:35:56.940Z,20.57
2018-11-21T19:38:25.735Z,19.53
2018-11-21T19:40:55.216Z,21.17
2018-11-21T19:43:24.987Z,18.70
2018-11-21T19:45:54.360Z,18.70
2018-11-21T19:48:23.646Z,18.07
2018-11-21T19:50:53.192Z,17.80
2018-11-21T19:53:22.408Z,17.70
2018-11-21T19:55:51.533Z,18.00
2018-11-21T19:58:20.947Z,18.10
2018-11-21T20:00:50.051Z,16.63
2018-11-21T20:03:19.267Z,19.00
2018-11-21T20:05:48.215Z,17.10
2018-11-21T20:08:18.117Z,16.83
2018-11-21T20:10:47.466Z,18.70
2018-11-21T20:13:16.287Z,19.57
2018-11-21T20:15:45.683Z,17.80
2018-11-21T20:18:14.563Z,17.90
2018-11-21T20:20:43.360Z,17.77
2018-11-21T20:23:12.107Z,19.30
2018-11-21T20:25:41.403Z,19.23
2018-11-21T20:28:10.598Z,19.53
2018-11-21T20:30:40.454Z,18.90
2018-11-21T20:33:09.306Z,17.97
2018-11-21T20:35:38.507Z,19.00
2018-11-21T20:38:08.638Z,18.57
2018-11-21T20:40:38.455Z,19.23
2018-11-21T20:43:08.329Z,17.93
2018-11-21T20:45:38.391Z,17.30
2018-11-21T20:48:08.061Z,17.43
2018-11-21T20:50:36.975Z,17.87
2018-11-21T20:53:07.985Z,18.70
2018-11-21T20:55:37.636Z,18.47
2018-11-21T20:58:06.559Z,18.80
2018-11-21T21:00:35.653Z,18.03
2018-11-21T21:05:34.445Z,17.63
2018-11-21T21:08:03.280Z,19.33
2018-11-21T21:10:33.372Z,20.30
2018-11-21T21:13:02.814Z,20.80
2018-11-21T21:15:31.966Z,21.53
2018-11-21T21:18:01.355Z,20.30
2018-11-21T21:20:30.777Z,21.67
2018-11-21T21:23:00.029Z,18.17
2018-11-21T21:25:30.188Z,27.37
2018-11-21T21:27:59.059Z,27.23
2018-11-21T21:30:29.535Z,27.37
2018-11-21T21:32:58.305Z,29.33
2018-11-21T21:35:28.407Z,29.00
2018-11-21T21:37:57.621Z,27.47
2018-11-21T21:40:26.456Z,24.90
2018-11-21T21:42:55.410Z,23.80
2018-11-21T21:45:26.070Z,23.17
2018-11-21T21:47:54.861Z,21.53
2018-11-21T21:50:25.336Z,24.57
2018-11-21T21:52:54.620Z,19.10
2018-11-21T21:55:25.504Z,21.27
2018-11-21T21:57:55.340Z,18.50
2018-11-21T22:00:25.398Z,18.90
2018-11-21T22:02:54.722Z,18.57
2018-11-21T22:05:23.448Z,17.60
2018-11-21T22:07:52.121Z,16.43
2018-11-21T22:10:21.559Z,16.90
2018-11-21T22:12:50.294Z,17.07
2018-11-21T22:15:30.223Z,17.40
2018-11-21T22:18:01.209Z,18.27
2018-11-21T22:20:29.919Z,17.73
2018-11-21T22:22:58.846Z,17.67
2018-11-21T22:25:27.628Z,17.23
2018-11-21T22:27:57.194Z,18.13
2018-11-21T22:30:26.156Z,22.33
2018-11-21T22:32:56.715Z,22.43
2018-11-21T22:35:27.170Z,21.80
2018-11-21T22:37:55.905Z,18.97
2018-11-21T22:40:25.396Z,18.50
2018-11-21T22:42:54.392Z,14.70
2018-11-21T22:45:24.402Z,16.17
